sensor_id;sensor_type;location;lat;lon;timestamp;P1;durP1;ratioP1;P2;durP2;ratioP2
41436;SDS011;27178;49.460;10.850;2022-11-20T00:01:27;17.17;;;15.50;;
41436;SDS011;27178;49.460;10.850;2022-11-20T00:03:56;17.43;;;15.70;;
41436;SDS011;27178;49.460;10.850;2022-11-20T00:06:27;16.83;;;15.17;;
41436;SDS011;27178;49.460;10.850;2022-11-20T00:08:56;18.47;;;16.53;;
41436;SDS011;27178;49.460;10.850;2022-11-20T00:11:26;18.30;;;16.43;;
41436;SDS011;27178;49.460;10.850;2022-11-20T00:13:57;18.03;;;16.23;;
41436;SDS011;27178;49.460;10.850;2022-11-20T00:16:27;17.47;;;15.67;;
41436;SDS011;27178;49.460;10.850;2022-11-20T00:18:59;18.83;;;16.83;;
41436;SDS011;27178;49.460;10.850;2022-11-20T00:21:28;17.70;;;15.67;;
41436;SDS011;27178;49.460;10.850;2022-11-20T00:23:57;19.67;;;17.67;;
41436;SDS011;27178;49.460;10.850;2022-11-20T00:26:27;19.50;;;17.50;;
41436;SDS011;27178;49.460;10.850;2022-11-20T00:28:57;17.13;;;15.47;;
41436;SDS011;27178;49.460;10.850;2022-11-20T00:31:27;18.63;;;16.73;;
41436;SDS011;27178;49.460;10.850;2022-11-20T00:33:57;17.80;;;15.97;;
41436;SDS011;27178;49.460;10.850;2022-11-20T00:36:27;18.40;;;16.53;;
41436;SDS011;27178;49.460;10.850;2022-11-20T00:38:57;18.87;;;16.87;;
41436;SDS011;27178;49.460;10.850;2022-11-20T00:41:26;18.90;;;17.00;;
41436;SDS011;27178;49.460;10.850;2022-11-20T00:43:56;19.60;;;17.33;;
41436;SDS011;27178;49.460;10.850;2022-11-20T00:46:25;23.00;;;17.90;;
41436;SDS011;27178;49.460;10.850;2022-11-20T00:48:54;19.33;;;17.37;;
41436;SDS011;27178;49.460;10.850;2022-11-20T00:51:24;19.30;;;17.27;;
41436;SDS011;27178;49.460;10.850;2022-11-20T00:53:55;20.10;;;18.00;;
41436;SDS011;27178;49.460;10.850;2022-11-20T00:56:23;20.80;;;18.60;;
41436;SDS011;27178;49.460;10.850;2022-11-20T00:58:51;20.27;;;18.00;;
41436;SDS011;27178;49.460;10.850;2022-11-20T01:01:21;19.40;;;17.37;;
41436;SDS011;27178;49.460;10.850;2022-11-20T01:03:52;22.10;;;19.50;;
41436;SDS011;27178;49.460;10.850;2022-11-20T01:06:24;21.77;;;19.50;;
41436;SDS011;27178;49.460;10.850;2022-11-20T01:08:54;22.37;;;19.97;;
41436;SDS011;27178;49.460;10.850;2022-11-20T01:11:25;22.00;;;18.97;;
41436;SDS011;27178;49.460;10.850;2022-11-20T01:13:54;22.83;;;20.23;;
41436;SDS011;27178;49.460;10.850;2022-11-20T01:16:25;24.07;;;19.27;;
41436;SDS011;27178;49.460;10.850;2022-11-20T01:18:56;21.07;;;18.80;;
41436;SDS011;27178;49.460;10.850;2022-11-20T01:21:27;21.00;;;18.63;;
41436;SDS011;27178;49.460;10.850;2022-11-20T01:23:59;20.67;;;18.47;;
41436;SDS011;27178;49.460;10.850;2022-11-20T01:26:28;19.73;;;17.63;;
41436;SDS011;27178;49.460;10.850;2022-11-20T01:28:58;22.17;;;19.20;;
41436;SDS011;27178;49.460;10.850;2022-11-20T01:31:28;20.80;;;18.57;;
41436;SDS011;27178;49.460;10.850;2022-11-20T01:33:59;20.83;;;18.63;;
41436;SDS011;27178;49.460;10.850;2022-11-20T01:36:31;21.33;;;18.93;;
41436;SDS011;27178;49.460;10.850;2022-11-20T01:39:03;22.13;;;19.87;;
41436;SDS011;27178;49.460;10.850;2022-11-20T01:41:33;21.20;;;19.00;;
41436;SDS011;27178;49.460;10.850;2022-11-20T01:44:20;20.47;;;18.27;;
41436;SDS011;27178;49.460;10.850;2022-11-20T01:46:52;21.23;;;18.93;;
41436;SDS011;27178;49.460;10.850;2022-11-20T01:49:27;20.87;;;18.67;;
41436;SDS011;27178;49.460;10.850;2022-11-20T01:52:01;22.57;;;19.97;;
41436;SDS011;27178;49.460;10.850;2022-11-20T01:54:35;22.17;;;19.87;;
41436;SDS011;27178;49.460;10.850;2022-11-20T01:57:06;21.47;;;19.10;;
41436;SDS011;27178;49.460;10.850;2022-11-20T01:59:38;21.60;;;19.00;;
41436;SDS011;27178;49.460;10.850;2022-11-20T02:02:12;23.20;;;20.70;;
41436;SDS011;27178;49.460;10.850;2022-11-20T02:04:40;22.87;;;20.00;;
41436;SDS011;27178;49.460;10.850;2022-11-20T02:07:10;23.00;;;20.57;;
41436;SDS011;27178;49.460;10.850;2022-11-20T02:09:39;22.13;;;19.30;;
41436;SDS011;27178;49.460;10.850;2022-11-20T02:12:07;22.00;;;19.67;;
41436;SDS011;27178;49.460;10.850;2022-11-20T02:14:56;21.37;;;18.60;;
41436;SDS011;27178;49.460;10.850;2022-11-20T02:17:24;22.20;;;19.80;;
41436;SDS011;27178;49.460;10.850;2022-11-20T02:19:53;22.30;;;19.80;;
41436;SDS011;27178;49.460;10.850;2022-11-20T02:22:24;20.13;;;18.00;;
41436;SDS011;27178;49.460;10.850;2022-11-20T02:25:01;20.00;;;17.80;;
41436;SDS011;27178;49.460;10.850;2022-11-20T02:31:18;20.27;;;18.17;;
41436;SDS011;27178;49.460;10.850;2022-11-20T02:33:46;21.60;;;17.93;;
41436;SDS011;27178;49.460;10.850;2022-11-20T02:36:14;20.57;;;18.33;;
41436;SDS011;27178;49.460;10.850;2022-11-20T02:38:45;20.80;;;18.60;;
41436;SDS011;27178;49.460;10.850;2022-11-20T02:41:15;20.60;;;18.40;;
41436;SDS011;27178;49.460;10.850;2022-11-20T02:43:43;20.87;;;18.50;;
41436;SDS011;27178;49.460;10.850;2022-11-20T02:46:12;20.73;;;18.53;;
41436;SDS011;27178;49.460;10.850;2022-11-20T02:48:40;20.53;;;18.33;;
41436;SDS011;27178;49.460;10.850;2022-11-20T02:51:09;20.77;;;18.43;;
41436;SDS011;27178;49.460;10.850;2022-11-20T02:53:37;19.63;;;17.53;;
41436;SDS011;27178;49.460;10.850;2022-11-20T02:56:06;18.97;;;17.00;;
41436;SDS011;27178;49.460;10.850;2022-11-20T02:58:36;20.37;;;17.70;;
41436;SDS011;27178;49.460;10.850;2022-11-20T03:01:04;20.40;;;18.03;;
41436;SDS011;27178;49.460;10.850;2022-11-20T03:03:32;21.10;;;18.73;;
41436;SDS011;27178;49.460;10.850;2022-11-20T03:06:01;21.13;;;18.90;;
41436;SDS011;27178;49.460;10.850;2022-11-20T03:08:29;19.93;;;17.67;;
41436;SDS011;27178;49.460;10.850;2022-11-20T03:11:01;19.17;;;16.40;;
41436;SDS011;27178;49.460;10.850;2022-11-20T03:13:31;21.57;;;18.83;;
41436;SDS011;27178;49.460;10.850;2022-11-20T03:16:05;18.13;;;16.20;;
41436;SDS011;27178;49.460;10.850;2022-11-20T03:18:35;19.73;;;17.17;;
41436;SDS011;27178;49.460;10.850;2022-11-20T03:21:04;19.50;;;17.30;;
41436;SDS011;27178;49.460;10.850;2022-11-20T03:23:33;19.53;;;17.47;;
41436;SDS011;27178;49.460;10.850;2022-11-20T03:26:12;20.90;;;17.90;;
41436;SDS011;27178;49.460;10.850;2022-11-20T03:28:47;19.87;;;17.77;;
41436;SDS011;27178;49.460;10.850;2022-11-20T03:31:19;19.63;;;17.53;;
41436;SDS011;27178;49.460;10.850;2022-11-20T03:33:49;19.37;;;17.33;;
41436;SDS011;27178;49.460;10.850;2022-11-20T03:36:18;21.80;;;19.50;;
41436;SDS011;27178;49.460;10.850;2022-11-20T03:38:48;22.10;;;19.83;;
41436;SDS011;27178;49.460;10.850;2022-11-20T03:41:17;21.07;;;18.80;;
41436;SDS011;27178;49.460;10.850;2022-11-20T03:43:47;20.37;;;17.97;;
41436;SDS011;27178;49.460;10.850;2022-11-20T03:46:16;20.43;;;18.27;;
41436;SDS011;27178;49.460;10.850;2022-11-20T03:48:46;19.27;;;17.27;;
41436;SDS011;27178;49.460;10.850;2022-11-20T03:51:18;20.97;;;18.77;;
41436;SDS011;27178;49.460;10.850;2022-11-20T03:53:47;19.63;;;17.53;;
41436;SDS011;27178;49.460;10.850;2022-11-20T03:56:17;20.30;;;18.07;;
41436;SDS011;27178;49.460;10.850;2022-11-20T03:58:47;19.43;;;17.30;;
41436;SDS011;27178;49.460;10.850;2022-11-20T04:01:16;19.87;;;17.73;;
41436;SDS011;27178;49.460;10.850;2022-11-20T04:03:48;18.63;;;16.63;;
41436;SDS011;27178;49.460;10.850;2022-11-20T04:06:19;20.23;;;17.27;;
41436;SDS011;27178;49.460;10.850;2022-11-20T04:08:49;18.83;;;16.83;;
41436;SDS011;27178;49.460;10.850;2022-11-20T04:11:19;18.20;;;16.30;;
41436;SDS011;27178;49.460;10.850;2022-11-20T04:13:49;19.80;;;17.70;;
41436;SDS011;27178;49.460;10.850;2022-11-20T04:16:21;18.17;;;16.27;;
41436;SDS011;27178;49.460;10.850;2022-11-20T04:18:54;18.33;;;16.43;;
41436;SDS011;27178;49.460;10.850;2022-11-20T04:21:23;18.37;;;16.50;;
41436;SDS011;27178;49.460;10.850;2022-11-20T04:23:52;16.37;;;14.77;;
41436;SDS011;27178;49.460;10.850;2022-11-20T04:26:21;17.30;;;15.50;;
41436;SDS011;27178;49.460;10.850;2022-11-20T04:28:50;17.27;;;15.43;;
41436;SDS011;27178;49.460;10.850;2022-11-20T04:31:21;17.43;;;15.67;;
41436;SDS011;27178;49.460;10.850;2022-11-20T04:33:51;17.10;;;15.30;;
41436;SDS011;27178;49.460;10.850;2022-11-20T04:36:20;18.07;;;16.23;;
41436;SDS011;27178;49.460;10.850;2022-11-20T04:38:50;17.63;;;15.83;;
41436;SDS011;27178;49.460;10.850;2022-11-20T04:41:23;15.70;;;14.17;;
41436;SDS011;27178;49.460;10.850;2022-11-20T04:43:53;17.80;;;15.97;;
41436;SDS011;27178;49.460;10.850;2022-11-20T04:46:27;16.83;;;15.07;;
41436;SDS011;27178;49.460;10.850;2022-11-20T04:48:57;16.40;;;14.77;;
41436;SDS011;27178;49.460;10.850;2022-11-20T04:51:25;16.67;;;15.07;;
41436;SDS011;27178;49.460;10.850;2022-11-20T04:53:54;16.03;;;14.50;;
41436;SDS011;27178;49.460;10.850;2022-11-20T04:56:22;17.03;;;15.27;;
41436;SDS011;27178;49.460;10.850;2022-11-20T05:02:07;15.23;;;13.63;;
41436;SDS011;27178;49.460;10.850;2022-11-20T05:04:36;15.00;;;13.47;;
41436;SDS011;27178;49.460;10.850;2022-11-20T05:07:04;15.77;;;13.67;;
41436;SDS011;27178;49.460;10.850;2022-11-20T05:09:33;16.50;;;14.80;;
41436;SDS011;27178;49.460;10.850;2022-11-20T05:12:01;16.03;;;14.47;;
41436;SDS011;27178;49.460;10.850;2022-11-20T05:14:30;17.07;;;15.37;;
41436;SDS011;27178;49.460;10.850;2022-11-20T05:16:58;16.80;;;15.10;;
41436;SDS011;27178;49.460;10.850;2022-11-20T05:19:28;15.47;;;13.80;;
41436;SDS011;27178;49.460;10.850;2022-11-20T05:21:56;16.03;;;14.43;;
41436;SDS011;27178;49.460;10.850;2022-11-20T05:24:25;15.67;;;14.03;;
41436;SDS011;27178;49.460;10.850;2022-11-20T05:26:54;14.97;;;13.40;;
41436;SDS011;27178;49.460;10.850;2022-11-20T05:29:22;14.77;;;13.37;;
41436;SDS011;27178;49.460;10.850;2022-11-20T05:31:50;20.87;;;16.63;;
41436;SDS011;27178;49.460;10.850;2022-11-20T05:34:19;17.20;;;14.83;;
41436;SDS011;27178;49.460;10.850;2022-11-20T05:36:48;19.60;;;16.20;;
41436;SDS011;27178;49.460;10.850;2022-11-20T05:39:17;17.47;;;15.30;;
41436;SDS011;27178;49.460;10.850;2022-11-20T05:41:46;21.77;;;18.40;;
41436;SDS011;27178;49.460;10.850;2022-11-20T05:44:34;20.27;;;15.93;;
41436;SDS011;27178;49.460;10.850;2022-11-20T05:47:02;18.27;;;14.47;;
41436;SDS011;27178;49.460;10.850;2022-11-20T05:49:31;15.97;;;14.37;;
41436;SDS011;27178;49.460;10.850;2022-11-20T05:52:01;16.63;;;14.93;;
41436;SDS011;27178;49.460;10.850;2022-11-20T05:54:29;15.43;;;13.90;;
41436;SDS011;27178;49.460;10.850;2022-11-20T05:56:58;15.33;;;13.87;;
41436;SDS011;27178;49.460;10.850;2022-11-20T05:59:27;14.63;;;13.13;;
41436;SDS011;27178;49.460;10.850;2022-11-20T06:01:55;15.57;;;13.20;;
41436;SDS011;27178;49.460;10.850;2022-11-20T06:04:24;15.83;;;14.20;;
41436;SDS011;27178;49.460;10.850;2022-11-20T06:06:53;16.00;;;14.40;;
41436;SDS011;27178;49.460;10.850;2022-11-20T06:09:23;15.07;;;13.47;;
41436;SDS011;27178;49.460;10.850;2022-11-20T06:11:51;14.20;;;12.80;;
41436;SDS011;27178;49.460;10.850;2022-11-20T06:14:20;14.10;;;12.70;;
41436;SDS011;27178;49.460;10.850;2022-11-20T06:16:48;14.23;;;12.83;;
41436;SDS011;27178;49.460;10.850;2022-11-20T06:19:17;14.40;;;12.93;;
41436;SDS011;27178;49.460;10.850;2022-11-20T06:21:47;13.97;;;12.57;;
41436;SDS011;27178;49.460;10.850;2022-11-20T06:24:15;12.67;;;11.37;;
41436;SDS011;27178;49.460;10.850;2022-11-20T06:26:46;13.67;;;12.37;;
41436;SDS011;27178;49.460;10.850;2022-11-20T06:29:14;13.20;;;11.90;;
41436;SDS011;27178;49.460;10.850;2022-11-20T06:31:42;12.93;;;11.67;;
41436;SDS011;27178;49.460;10.850;2022-11-20T06:34:11;13.33;;;12.03;;
41436;SDS011;27178;49.460;10.850;2022-11-20T06:36:39;13.33;;;11.70;;
41436;SDS011;27178;49.460;10.850;2022-11-20T06:39:08;13.80;;;12.50;;
41436;SDS011;27178;49.460;10.850;2022-11-20T06:41:36;14.00;;;12.60;;
41436;SDS011;27178;49.460;10.850;2022-11-20T06:44:06;12.63;;;11.43;;
41436;SDS011;27178;49.460;10.850;2022-11-20T06:46:34;14.47;;;12.17;;
41436;SDS011;27178;49.460;10.850;2022-11-20T06:49:03;13.83;;;12.47;;
41436;SDS011;27178;49.460;10.850;2022-11-20T06:51:31;13.23;;;11.83;;
41436;SDS011;27178;49.460;10.850;2022-11-20T06:53:59;14.33;;;12.83;;
41436;SDS011;27178;49.460;10.850;2022-11-20T06:56:28;13.30;;;12.00;;
41436;SDS011;27178;49.460;10.850;2022-11-20T06:58:56;13.30;;;12.00;;
41436;SDS011;27178;49.460;10.850;2022-11-20T07:01:26;12.03;;;10.93;;
41436;SDS011;27178;49.460;10.850;2022-11-20T07:03:54;11.93;;;10.80;;
41436;SDS011;27178;49.460;10.850;2022-11-20T07:06:23;10.97;;;9.80;;
41436;SDS011;27178;49.460;10.850;2022-11-20T07:08:51;12.37;;;11.27;;
41436;SDS011;27178;49.460;10.850;2022-11-20T07:11:20;12.43;;;11.23;;
41436;SDS011;27178;49.460;10.850;2022-11-20T07:13:48;11.60;;;10.50;;
41436;SDS011;27178;49.460;10.850;2022-11-20T07:16:17;12.30;;;11.17;;
41436;SDS011;27178;49.460;10.850;2022-11-20T07:18:46;12.37;;;11.07;;
41436;SDS011;27178;49.460;10.850;2022-11-20T07:21:16;11.60;;;10.53;;
41436;SDS011;27178;49.460;10.850;2022-11-20T07:23:44;11.83;;;10.73;;
41436;SDS011;27178;49.460;10.850;2022-11-20T07:26:13;11.63;;;10.53;;
41436;SDS011;27178;49.460;10.850;2022-11-20T07:28:43;12.47;;;11.17;;
41436;SDS011;27178;49.460;10.850;2022-11-20T07:31:12;13.10;;;11.90;;
41436;SDS011;27178;49.460;10.850;2022-11-20T07:33:44;13.20;;;11.90;;
41436;SDS011;27178;49.460;10.850;2022-11-20T07:36:14;13.07;;;11.80;;
41436;SDS011;27178;49.460;10.850;2022-11-20T07:38:43;12.60;;;11.40;;
41436;SDS011;27178;49.460;10.850;2022-11-20T07:41:11;12.90;;;11.73;;
41436;SDS011;27178;49.460;10.850;2022-11-20T07:43:39;12.70;;;11.40;;
41436;SDS011;27178;49.460;10.850;2022-11-20T07:46:09;11.50;;;10.40;;
41436;SDS011;27178;49.460;10.850;2022-11-20T07:48:37;11.40;;;10.30;;
41436;SDS011;27178;49.460;10.850;2022-11-20T07:51:07;12.40;;;11.20;;
41436;SDS011;27178;49.460;10.850;2022-11-20T07:53:35;12.67;;;11.37;;
41436;SDS011;27178;49.460;10.850;2022-11-20T07:56:03;12.53;;;11.23;;
41436;SDS011;27178;49.460;10.850;2022-11-20T07:58:32;11.80;;;10.67;;
41436;SDS011;27178;49.460;10.850;2022-11-20T08:01:04;11.20;;;10.07;;
41436;SDS011;27178;49.460;10.850;2022-11-20T08:03:33;11.93;;;10.83;;
41436;SDS011;27178;49.460;10.850;2022-11-20T08:06:04;11.23;;;10.13;;
41436;SDS011;27178;49.460;10.850;2022-11-20T08:08:34;12.53;;;11.17;;
41436;SDS011;27178;49.460;10.850;2022-11-20T08:11:08;11.63;;;10.43;;
41436;SDS011;27178;49.460;10.850;2022-11-20T08:13:54;11.20;;;10.20;;
41436;SDS011;27178;49.460;10.850;2022-11-20T08:16:40;11.37;;;10.27;;
41436;SDS011;27178;49.460;10.850;2022-11-20T08:19:10;11.20;;;10.17;;
41436;SDS011;27178;49.460;10.850;2022-11-20T08:21:39;11.13;;;10.03;;
41436;SDS011;27178;49.460;10.850;2022-11-20T08:24:09;11.20;;;10.17;;
41436;SDS011;27178;49.460;10.850;2022-11-20T08:26:38;11.13;;;10.07;;
41436;SDS011;27178;49.460;10.850;2022-11-20T08:29:07;11.67;;;10.57;;
41436;SDS011;27178;49.460;10.850;2022-11-20T08:31:36;10.77;;;9.67;;
41436;SDS011;27178;49.460;10.850;2022-11-20T08:34:04;10.87;;;9.77;;
41436;SDS011;27178;49.460;10.850;2022-11-20T08:36:35;11.53;;;10.43;;
41436;SDS011;27178;49.460;10.850;2022-11-20T08:39:04;10.90;;;9.80;;
41436;SDS011;27178;49.460;10.850;2022-11-20T08:41:33;11.17;;;10.07;;
41436;SDS011;27178;49.460;10.850;2022-11-20T08:44:03;12.77;;;11.47;;
41436;SDS011;27178;49.460;10.850;2022-11-20T08:46:33;11.50;;;10.40;;
41436;SDS011;27178;49.460;10.850;2022-11-20T08:49:03;12.07;;;10.87;;
41436;SDS011;27178;49.460;10.850;2022-11-20T08:51:32;12.20;;;11.07;;
41436;SDS011;27178;49.460;10.850;2022-11-20T08:54:01;12.33;;;11.13;;
41436;SDS011;27178;49.460;10.850;2022-11-20T08:56:29;12.20;;;11.10;;
41436;SDS011;27178;49.460;10.850;2022-11-20T08:58:59;12.53;;;11.33;;
41436;SDS011;27178;49.460;10.850;2022-11-20T09:01:48;11.90;;;10.70;;
41436;SDS011;27178;49.460;10.850;2022-11-20T09:04:16;12.50;;;11.20;;
41436;SDS011;27178;49.460;10.850;2022-11-20T09:06:45;14.40;;;13.00;;
41436;SDS011;27178;49.460;10.850;2022-11-20T09:09:17;13.63;;;12.13;;
41436;SDS011;27178;49.460;10.850;2022-11-20T09:11:46;14.37;;;11.63;;
41436;SDS011;27178;49.460;10.850;2022-11-20T09:14:18;13.70;;;12.30;;
41436;SDS011;27178;49.460;10.850;2022-11-20T09:16:47;18.63;;;16.83;;
41436;SDS011;27178;49.460;10.850;2022-11-20T09:19:16;16.57;;;14.87;;
41436;SDS011;27178;49.460;10.850;2022-11-20T09:22:04;15.03;;;13.50;;
41436;SDS011;27178;49.460;10.850;2022-11-20T09:24:32;18.97;;;17.07;;
41436;SDS011;27178;49.460;10.850;2022-11-20T09:27:01;14.57;;;13.17;;
41436;SDS011;27178;49.460;10.850;2022-11-20T09:29:32;15.20;;;13.70;;
41436;SDS011;27178;49.460;10.850;2022-11-20T09:32:00;14.70;;;13.20;;
41436;SDS011;27178;49.460;10.850;2022-11-20T09:34:29;13.03;;;11.37;;
41436;SDS011;27178;49.460;10.850;2022-11-20T09:36:57;13.40;;;12.20;;
41436;SDS011;27178;49.460;10.850;2022-11-20T09:39:31;13.53;;;11.97;;
41436;SDS011;27178;49.460;10.850;2022-11-20T09:42:03;13.30;;;12.00;;
41436;SDS011;27178;49.460;10.850;2022-11-20T09:45:01;12.27;;;11.07;;
41436;SDS011;27178;49.460;10.850;2022-11-20T09:47:42;12.93;;;11.63;;
41436;SDS011;27178;49.460;10.850;2022-11-20T09:50:27;13.50;;;12.20;;
41436;SDS011;27178;49.460;10.850;2022-11-20T09:53:04;13.67;;;11.60;;
41436;SDS011;27178;49.460;10.850;2022-11-20T09:55:40;12.73;;;11.50;;
41436;SDS011;27178;49.460;10.850;2022-11-20T09:58:12;12.80;;;11.53;;
41436;SDS011;27178;49.460;10.850;2022-11-20T10:00:50;12.23;;;11.03;;
41436;SDS011;27178;49.460;10.850;2022-11-20T10:03:25;13.90;;;12.47;;
41436;SDS011;27178;49.460;10.850;2022-11-20T10:06:01;13.23;;;11.93;;
41436;SDS011;27178;49.460;10.850;2022-11-20T10:08:34;13.80;;;12.40;;
41436;SDS011;27178;49.460;10.850;2022-11-20T10:11:11;12.70;;;11.50;;
41436;SDS011;27178;49.460;10.850;2022-11-20T10:13:46;11.43;;;10.27;;
41436;SDS011;27178;49.460;10.850;2022-11-20T10:16:29;11.77;;;10.57;;
41436;SDS011;27178;49.460;10.850;2022-11-20T10:19:10;11.80;;;10.70;;
41436;SDS011;27178;49.460;10.850;2022-11-20T10:21:54;9.70;;;8.83;;
41436;SDS011;27178;49.460;10.850;2022-11-20T10:24:44;9.10;;;8.27;;
41436;SDS011;27178;49.460;10.850;2022-11-20T10:30:28;13.80;;;12.40;;
41436;SDS011;27178;49.460;10.850;2022-11-20T10:33:01;15.13;;;13.57;;
41436;SDS011;27178;49.460;10.850;2022-11-20T10:35:34;16.80;;;15.13;;
41436;SDS011;27178;49.460;10.850;2022-11-20T10:38:05;16.70;;;15.03;;
41436;SDS011;27178;49.460;10.850;2022-11-20T10:40:42;16.93;;;15.13;;
41436;SDS011;27178;49.460;10.850;2022-11-20T10:43:13;16.17;;;14.30;;
41436;SDS011;27178;49.460;10.850;2022-11-20T10:45:45;28.07;;;21.97;;
41436;SDS011;27178;49.460;10.850;2022-11-20T10:48:21;20.23;;;18.10;;
41436;SDS011;27178;49.460;10.850;2022-11-20T10:51:00;26.90;;;24.00;;
41436;SDS011;27178;49.460;10.850;2022-11-20T10:53:53;19.83;;;17.67;;
41436;SDS011;27178;49.460;10.850;2022-11-20T10:56:27;19.57;;;16.57;;
41436;SDS011;27178;49.460;10.850;2022-11-20T10:59:10;19.13;;;14.77;;
41436;SDS011;27178;49.460;10.850;2022-11-20T11:01:52;19.83;;;16.77;;
41436;SDS011;27178;49.460;10.850;2022-11-20T11:04:28;19.43;;;17.33;;
41436;SDS011;27178;49.460;10.850;2022-11-20T11:07:12;17.23;;;15.40;;
41436;SDS011;27178;49.460;10.850;2022-11-20T11:09:46;19.17;;;17.27;;
41436;SDS011;27178;49.460;10.850;2022-11-20T11:12:16;14.43;;;13.03;;
41436;SDS011;27178;49.460;10.850;2022-11-20T11:14:47;13.43;;;12.00;;
41436;SDS011;27178;49.460;10.850;2022-11-20T11:17:20;15.03;;;13.53;;
41436;SDS011;27178;49.460;10.850;2022-11-20T11:20:00;13.93;;;12.53;;
41436;SDS011;27178;49.460;10.850;2022-11-20T11:22:31;13.10;;;11.83;;
41436;SDS011;27178;49.460;10.850;2022-11-20T11:25:02;12.57;;;11.27;;
41436;SDS011;27178;49.460;10.850;2022-11-20T11:27:30;13.80;;;12.03;;
41436;SDS011;27178;49.460;10.850;2022-11-20T11:30:03;13.80;;;12.50;;
41436;SDS011;27178;49.460;10.850;2022-11-20T11:32:40;14.40;;;13.07;;
41436;SDS011;27178;49.460;10.850;2022-11-20T11:35:20;15.20;;;13.77;;
41436;SDS011;27178;49.460;10.850;2022-11-20T11:37:53;12.97;;;11.77;;
41436;SDS011;27178;49.460;10.850;2022-11-20T11:40:29;12.10;;;11.00;;
41436;SDS011;27178;49.460;10.850;2022-11-20T11:43:02;11.57;;;10.47;;
41436;SDS011;27178;49.460;10.850;2022-11-20T11:45:57;9.80;;;8.90;;
41436;SDS011;27178;49.460;10.850;2022-11-20T11:48:24;9.47;;;8.57;;
41436;SDS011;27178;49.460;10.850;2022-11-20T11:50:55;7.00;;;6.37;;
41436;SDS011;27178;49.460;10.850;2022-11-20T11:53:23;7.40;;;6.67;;
41436;SDS011;27178;49.460;10.850;2022-11-20T11:55:56;8.80;;;7.97;;
41436;SDS011;27178;49.460;10.850;2022-11-20T11:58:38;7.47;;;6.80;;
41436;SDS011;27178;49.460;10.850;2022-11-20T12:01:34;8.00;;;7.20;;
41436;SDS011;27178;49.460;10.850;2022-11-20T12:04:10;8.27;;;7.47;;
41436;SDS011;27178;49.460;10.850;2022-11-20T12:07:00;7.93;;;7.23;;
41436;SDS011;27178;49.460;10.850;2022-11-20T12:10:04;7.77;;;7.07;;
41436;SDS011;27178;49.460;10.850;2022-11-20T12:13:01;8.00;;;7.23;;
41436;SDS011;27178;49.460;10.850;2022-11-20T12:15:33;8.23;;;7.43;;
41436;SDS011;27178;49.460;10.850;2022-11-20T12:18:04;7.87;;;7.17;;
41436;SDS011;27178;49.460;10.850;2022-11-20T12:20:43;6.33;;;5.80;;
41436;SDS011;27178;49.460;10.850;2022-11-20T12:23:21;7.27;;;6.67;;
41436;SDS011;27178;49.460;10.850;2022-11-20T12:26:03;6.90;;;6.30;;
41436;SDS011;27178;49.460;10.850;2022-11-20T12:28:42;9.43;;;8.53;;
41436;SDS011;27178;49.460;10.850;2022-11-20T12:31:23;10.60;;;9.60;;
41436;SDS011;27178;49.460;10.850;2022-11-20T12:34:10;8.20;;;7.40;;
41436;SDS011;27178;49.460;10.850;2022-11-20T12:36:56;6.33;;;5.73;;
41436;SDS011;27178;49.460;10.850;2022-11-20T12:39:36;6.40;;;5.90;;
41436;SDS011;27178;49.460;10.850;2022-11-20T12:45:26;4.73;;;4.33;;
41436;SDS011;27178;49.460;10.850;2022-11-20T12:51:20;5.80;;;5.23;;
41436;SDS011;27178;49.460;10.850;2022-11-20T12:54:11;6.00;;;5.47;;
41436;SDS011;27178;49.460;10.850;2022-11-20T12:57:06;4.50;;;4.10;;
41436;SDS011;27178;49.460;10.850;2022-11-20T12:59:48;4.63;;;4.23;;
41436;SDS011;27178;49.460;10.850;2022-11-20T13:02:40;4.97;;;4.57;;
41436;SDS011;27178;49.460;10.850;2022-11-20T13:05:27;4.83;;;4.43;;
41436;SDS011;27178;49.460;10.850;2022-11-20T13:08:03;4.97;;;4.57;;
41436;SDS011;27178;49.460;10.850;2022-11-20T13:10:39;5.17;;;4.77;;
41436;SDS011;27178;49.460;10.850;2022-11-20T13:13:19;5.23;;;4.80;;
41436;SDS011;27178;49.460;10.850;2022-11-20T13:15:53;5.33;;;4.83;;
41436;SDS011;27178;49.460;10.850;2022-11-20T13:18:27;5.20;;;4.80;;
41436;SDS011;27178;49.460;10.850;2022-11-20T13:20:58;5.23;;;4.83;;
41436;SDS011;27178;49.460;10.850;2022-11-20T13:23:26;5.33;;;4.83;;
41436;SDS011;27178;49.460;10.850;2022-11-20T13:26:02;5.17;;;4.67;;
41436;SDS011;27178;49.460;10.850;2022-11-20T13:28:43;5.33;;;4.93;;
41436;SDS011;27178;49.460;10.850;2022-11-20T13:31:24;5.67;;;5.27;;
41436;SDS011;27178;49.460;10.850;2022-11-20T13:33:57;5.67;;;5.17;;
41436;SDS011;27178;49.460;10.850;2022-11-20T13:36:29;5.47;;;4.97;;
41436;SDS011;27178;49.460;10.850;2022-11-20T13:38:58;6.20;;;5.60;;
41436;SDS011;27178;49.460;10.850;2022-11-20T13:41:27;5.73;;;5.23;;
41436;SDS011;27178;49.460;10.850;2022-11-20T13:44:04;6.50;;;5.97;;
41436;SDS011;27178;49.460;10.850;2022-11-20T13:46:38;5.17;;;4.73;;
41436;SDS011;27178;49.460;10.850;2022-11-20T13:49:08;5.97;;;5.47;;
41436;SDS011;27178;49.460;10.850;2022-11-20T13:51:40;5.70;;;5.20;;
41436;SDS011;27178;49.460;10.850;2022-11-20T13:57:26;6.90;;;6.30;;
41436;SDS011;27178;49.460;10.850;2022-11-20T14:00:13;6.90;;;6.30;;
41436;SDS011;27178;49.460;10.850;2022-11-20T14:02:44;6.33;;;5.83;;
41436;SDS011;27178;49.460;10.850;2022-11-20T14:05:26;6.57;;;5.97;;
41436;SDS011;27178;49.460;10.850;2022-11-20T14:07:56;6.70;;;6.10;;
41436;SDS011;27178;49.460;10.850;2022-11-20T14:10:26;6.00;;;5.50;;
41436;SDS011;27178;49.460;10.850;2022-11-20T14:12:58;6.53;;;5.93;;
41436;SDS011;27178;49.460;10.850;2022-11-20T14:15:38;6.50;;;5.90;;
41436;SDS011;27178;49.460;10.850;2022-11-20T14:18:11;6.63;;;6.10;;
41436;SDS011;27178;49.460;10.850;2022-11-20T14:20:41;6.67;;;5.97;;
41436;SDS011;27178;49.460;10.850;2022-11-20T14:23:10;6.43;;;5.83;;
41436;SDS011;27178;49.460;10.850;2022-11-20T14:25:41;5.70;;;5.20;;
41436;SDS011;27178;49.460;10.850;2022-11-20T14:28:18;6.47;;;5.87;;
41436;SDS011;27178;49.460;10.850;2022-11-20T14:30:53;6.77;;;6.07;;
41436;SDS011;27178;49.460;10.850;2022-11-20T14:33:22;6.60;;;6.03;;
41436;SDS011;27178;49.460;10.850;2022-11-20T14:35:52;6.63;;;6.03;;
41436;SDS011;27178;49.460;10.850;2022-11-20T14:38:24;7.27;;;6.57;;
41436;SDS011;27178;49.460;10.850;2022-11-20T14:40:54;7.40;;;6.70;;
41436;SDS011;27178;49.460;10.850;2022-11-20T14:43:33;6.30;;;5.80;;
41436;SDS011;27178;49.460;10.850;2022-11-20T14:46:03;6.60;;;6.00;;
41436;SDS011;27178;49.460;10.850;2022-11-20T14:48:36;6.80;;;6.20;;
41436;SDS011;27178;49.460;10.850;2022-11-20T14:51:08;6.87;;;6.27;;
41436;SDS011;27178;49.460;10.850;2022-11-20T14:53:37;7.13;;;6.53;;
41436;SDS011;27178;49.460;10.850;2022-11-20T14:56:05;6.13;;;5.63;;
41436;SDS011;27178;49.460;10.850;2022-11-20T14:58:38;6.67;;;6.07;;
41436;SDS011;27178;49.460;10.850;2022-11-20T15:01:11;6.77;;;6.17;;
41436;SDS011;27178;49.460;10.850;2022-11-20T15:03:40;6.47;;;5.87;;